createdAt,value
2018-04-18T00:01:15.387Z,89.80
2018-04-18T00:03:42.940Z,89.80
2018-04-18T00:06:10.532Z,89.80
2018-04-18T00:08:38.096Z,90.00
2018-04-18T00:11:05.653Z,89.70
2018-04-18T00:13:33.211Z,90.00
2018-04-18T00:16:00.777Z,90.00
2018-04-18T00:18:28.348Z,90.00
2018-04-18T00:20:55.900Z,90.00
2018-04-18T00:23:23.456Z,90.30
2018-04-18T00:25:51.017Z,90.80
2018-04-18T00:28:18.581Z,90.30
2018-04-18T00:30:46.157Z,90.40
2018-04-18T00:33:13.704Z,90.50
2018-04-18T00:35:41.252Z,90.50
2018-04-18T00:38:08.806Z,90.40
2018-04-18T00:40:36.366Z,90.60
2018-04-18T00:43:03.944Z,90.60
2018-04-18T00:45:32.272Z,90.60
2018-04-18T00:47:59.844Z,90.60
2018-04-18T00:50:27.395Z,90.70
2018-04-18T00:52:54.952Z,90.70
2018-04-18T00:55:22.527Z,90.90
2018-04-18T00:57:50.076Z,90.80
2018-04-18T01:00:17.629Z,91.00
2018-04-18T01:02:45.187Z,90.90
2018-04-18T01:05:12.748Z,90.90
2018-04-18T01:07:40.331Z,91.10
2018-04-18T01:10:07.888Z,91.20
2018-04-18T01:12:35.448Z,91.30
2018-04-18T01:15:03.009Z,91.40
2018-04-18T01:17:31.327Z,91.50
2018-04-18T01:19:58.910Z,91.50
2018-04-18T01:22:26.464Z,91.50
2018-04-18T01:24:54.012Z,91.60
2018-04-18T01:27:21.569Z,91.60
2018-04-18T01:29:49.132Z,91.70
2018-04-18T01:32:16.719Z,91.70
2018-04-18T01:34:44.280Z,92.10
2018-04-18T01:37:11.852Z,91.70
2018-04-18T01:39:39.404Z,91.80
2018-04-18T01:42:07.728Z,91.90
2018-04-18T01:44:35.366Z,91.90
2018-04-18T01:47:02.916Z,91.90
2018-04-18T01:49:32.316Z,91.90
2018-04-18T01:52:01.196Z,92.00
2018-04-18T01:54:28.748Z,91.90
2018-04-18T01:56:57.113Z,91.90
2018-04-18T01:59:25.459Z,92.00
2018-04-18T02:01:53.019Z,92.00
2018-04-18T02:04:20.577Z,92.00
2018-04-18T02:06:48.136Z,92.10
2018-04-18T02:09:15.726Z,92.10
2018-04-18T02:11:43.285Z,92.00
2018-04-18T02:14:10.868Z,92.10
2018-04-18T02:16:41.472Z,92.00
2018-04-18T02:19:09.029Z,92.00
2018-04-18T02:21:36.589Z,92.00
2018-04-18T02:24:04.914Z,91.90
2018-04-18T02:26:32.492Z,91.90
2018-04-18T02:29:00.048Z,92.00
2018-04-18T02:31:27.624Z,91.90
2018-04-18T02:33:55.179Z,92.00
2018-04-18T02:36:22.740Z,92.00
2018-04-18T02:38:50.316Z,92.00
2018-04-18T02:41:18.660Z,92.30
2018-04-18T02:43:46.218Z,92.20
2018-04-18T02:46:13.783Z,92.10
2018-04-18T02:48:41.342Z,92.30
2018-04-18T02:51:08.938Z,92.30
2018-04-18T02:53:36.499Z,92.40
2018-04-18T02:56:04.056Z,92.40
2018-04-18T02:58:31.615Z,92.40
2018-04-18T03:00:59.173Z,92.50
2018-04-18T03:03:26.759Z,92.60
2018-04-18T03:05:54.316Z,92.60
2018-04-18T03:08:21.874Z,92.60
2018-04-18T03:10:49.433Z,92.40
2018-04-18T03:13:16.987Z,92.70
2018-04-18T03:15:44.564Z,92.50
2018-04-18T03:18:12.120Z,92.40
2018-04-18T03:20:39.692Z,92.20
2018-04-18T03:23:08.766Z,92.30
2018-04-18T03:25:36.316Z,92.30
2018-04-18T03:28:03.900Z,92.40
2018-04-18T03:30:31.457Z,92.50
2018-04-18T03:32:59.017Z,92.60
2018-04-18T03:35:26.569Z,92.80
2018-04-18T03:37:54.888Z,92.90
2018-04-18T03:40:22.461Z,93.20
2018-04-18T03:42:50.012Z,92.90
2018-04-18T03:45:18.335Z,92.70
2018-04-18T03:47:45.893Z,92.80
2018-04-18T03:50:13.449Z,92.80
2018-04-18T03:52:41.024Z,92.70
2018-04-18T03:55:08.582Z,92.60
2018-04-18T03:57:36.133Z,92.50
2018-04-18T04:02:37.968Z,92.80
2018-04-18T04:05:05.544Z,92.50
2018-04-18T04:07:33.109Z,92.40
2018-04-18T04:10:00.661Z,92.40
2018-04-18T04:12:28.209Z,92.40
2018-04-18T04:14:55.760Z,92.40
2018-04-18T04:17:34.932Z,92.40
2018-04-18T04:20:14.143Z,92.30
2018-04-18T04:22:53.433Z,92.30
2018-04-18T04:25:21.789Z,92.20
2018-04-18T04:27:49.348Z,92.20
2018-04-18T04:30:26.459Z,91.90
2018-04-18T04:35:38.824Z,91.70
2018-04-18T04:38:06.424Z,91.50
2018-04-18T04:40:33.976Z,91.30
2018-04-18T04:43:13.035Z,91.10
2018-04-18T04:45:40.584Z,91.10
2018-04-18T04:48:18.833Z,90.90
2018-04-18T04:50:46.396Z,90.90
2018-04-18T04:55:59.484Z,90.90
2018-04-18T05:03:56.555Z,90.80
2018-04-18T05:06:24.112Z,90.50
2018-04-18T05:08:51.688Z,90.30
2018-04-18T05:14:03.831Z,89.70
2018-04-18T05:16:31.381Z,90.10
2018-04-18T05:21:33.567Z,90.00
2018-04-18T05:24:01.121Z,90.00
2018-04-18T05:26:31.544Z,90.10
2018-04-18T05:28:59.099Z,89.70
2018-04-18T05:31:26.652Z,89.40
2018-04-18T05:36:27.161Z,89.20
2018-04-18T05:38:54.736Z,87.80
2018-04-18T05:41:22.284Z,88.50
2018-04-18T05:43:49.832Z,88.40
2018-04-18T05:46:18.163Z,87.90
2018-04-18T05:48:45.715Z,87.90
2018-04-18T05:51:13.296Z,87.60
2018-04-18T05:53:40.856Z,87.70
2018-04-18T05:56:08.416Z,87.10
2018-04-18T05:58:35.965Z,87.60
2018-04-18T06:01:03.516Z,87.50
2018-04-18T06:03:31.102Z,87.20
2018-04-18T06:05:59.428Z,86.70
2018-04-18T06:08:26.977Z,86.70
2018-04-18T06:10:54.534Z,86.60
2018-04-18T06:13:22.080Z,86.70
2018-04-18T06:15:49.653Z,86.30
2018-04-18T06:18:17.202Z,86.60
2018-04-18T06:20:44.765Z,85.80
2018-04-18T06:23:12.317Z,85.80
2018-04-18T06:25:39.864Z,86.20
2018-04-18T06:28:07.453Z,85.80
2018-04-18T06:30:35.052Z,85.90
2018-04-18T06:33:02.616Z,85.90
2018-04-18T06:35:30.959Z,86.40
2018-04-18T06:37:59.468Z,86.40
2018-04-18T06:40:27.052Z,85.40
2018-04-18T06:42:54.605Z,85.50
2018-04-18T06:45:22.156Z,85.20
2018-04-18T06:47:50.468Z,85.00
2018-04-18T06:50:18.016Z,85.00
2018-04-18T06:52:45.593Z,85.10
2018-04-18T06:55:13.140Z,85.40
2018-04-18T06:57:40.708Z,84.50
2018-04-18T07:00:09.044Z,84.00
2018-04-18T07:02:36.597Z,84.00
2018-04-18T07:05:04.185Z,84.50
2018-04-18T07:07:31.737Z,84.10
2018-04-18T07:09:59.302Z,84.00
2018-04-18T07:12:26.873Z,83.60
2018-04-18T07:14:54.425Z,83.30
2018-04-18T07:17:21.977Z,83.00
2018-04-18T07:19:49.528Z,83.10
2018-04-18T07:22:17.080Z,83.10
2018-04-18T07:24:44.654Z,82.40
2018-04-18T07:27:12.217Z,82.80
2018-04-18T07:29:39.783Z,81.90
2018-04-18T07:32:07.344Z,82.40
2018-04-18T07:34:34.899Z,82.00
2018-04-18T07:37:02.476Z,82.00
2018-04-18T07:39:30.025Z,82.40
2018-04-18T07:41:57.628Z,82.80
2018-04-18T07:44:25.967Z,81.70
2018-04-18T07:46:53.522Z,81.70
2018-04-18T07:49:21.092Z,81.90
2018-04-18T07:51:49.477Z,81.10
2018-04-18T07:54:17.028Z,81.20
2018-04-18T07:56:44.581Z,81.50
2018-04-18T07:59:12.138Z,81.20
2018-04-18T08:01:39.721Z,80.90
2018-04-18T08:04:07.273Z,80.60
2018-04-18T08:06:34.824Z,80.50
2018-04-18T08:09:02.375Z,80.60
2018-04-18T08:11:29.932Z,80.60
2018-04-18T08:13:57.572Z,80.10
2018-04-18T08:16:25.164Z,80.00
2018-04-18T08:18:53.487Z,79.60
2018-04-18T08:21:21.037Z,79.60
2018-04-18T08:23:48.604Z,79.80
2018-04-18T08:26:16.190Z,79.30
2018-04-18T08:28:43.740Z,79.80
2018-04-18T08:31:11.299Z,80.40
2018-04-18T08:33:38.862Z,81.20
2018-04-18T08:36:06.422Z,81.10
2018-04-18T08:38:34.001Z,82.70
2018-04-18T08:41:01.553Z,84.10
2018-04-18T08:43:29.104Z,85.00
2018-04-18T08:45:56.657Z,86.10
2018-04-18T08:48:24.220Z,85.90
2018-04-18T08:50:51.833Z,86.40
2018-04-18T08:53:19.388Z,86.00
2018-04-18T08:55:46.948Z,87.10
2018-04-18T08:58:14.496Z,89.70
2018-04-18T09:00:42.045Z,88.30
2018-04-18T09:03:09.625Z,89.30
2018-04-18T09:05:37.180Z,90.00
2018-04-18T09:08:04.933Z,89.00
2018-04-18T09:10:32.492Z,89.90
2018-04-18T09:13:00.048Z,90.20
2018-04-18T09:15:27.624Z,89.50
2018-04-18T09:17:55.183Z,90.20
2018-04-18T09:20:22.732Z,90.00
2018-04-18T09:22:50.282Z,89.70
2018-04-18T09:25:17.832Z,89.20
2018-04-18T09:27:45.413Z,88.80
2018-04-18T09:30:12.966Z,89.80
2018-04-18T09:32:40.720Z,88.10
2018-04-18T09:35:08.268Z,89.70
2018-04-18T09:37:35.816Z,90.00
2018-04-18T09:40:04.156Z,88.70
2018-04-18T09:42:31.744Z,88.70
2018-04-18T09:44:59.731Z,89.70
2018-04-18T09:47:27.280Z,89.80
2018-04-18T09:49:54.848Z,89.50
2018-04-18T09:52:22.437Z,88.00
2018-04-18T09:54:49.998Z,88.10
2018-04-18T09:57:17.552Z,87.80
2018-04-18T09:59:45.101Z,87.80
2018-04-18T10:02:18.576Z,87.90
2018-04-18T10:04:46.129Z,87.40
2018-04-18T10:07:13.676Z,86.60
2018-04-18T10:09:41.265Z,87.00
2018-04-18T10:12:08.820Z,86.90
2018-04-18T10:14:36.377Z,88.20
2018-04-18T10:17:03.928Z,87.90
2018-04-18T10:19:31.479Z,87.60
2018-04-18T10:22:00.224Z,88.00
2018-04-18T10:24:27.776Z,87.40
2018-04-18T10:26:55.332Z,87.20
2018-04-18T10:29:22.880Z,86.90
2018-04-18T10:31:51.208Z,85.90
2018-04-18T10:34:18.780Z,85.90
2018-04-18T10:36:46.352Z,86.00
2018-04-18T10:39:13.906Z,85.30
2018-04-18T10:41:41.468Z,84.50
2018-04-18T10:44:09.024Z,84.20
2018-04-18T10:46:36.596Z,84.20
2018-04-18T10:49:04.157Z,83.90
2018-04-18T10:51:31.717Z,82.40
2018-04-18T10:53:59.276Z,81.90
2018-04-18T10:56:27.600Z,83.10
2018-04-18T10:58:55.180Z,83.10
2018-04-18T11:01:22.742Z,83.20
2018-04-18T11:03:50.292Z,82.70
2018-04-18T11:06:17.844Z,83.60
2018-04-18T11:08:45.400Z,82.70
2018-04-18T11:11:12.998Z,82.30
2018-04-18T11:13:40.560Z,82.80
2018-04-18T11:16:08.121Z,83.80
2018-04-18T11:18:35.685Z,82.80
2018-04-18T11:21:03.236Z,83.10
2018-04-18T11:23:30.815Z,82.70
2018-04-18T11:25:58.368Z,82.10
2018-04-18T11:28:25.924Z,82.30
2018-04-18T11:30:54.273Z,82.00
2018-04-18T11:33:21.828Z,81.80
2018-04-18T11:35:49.422Z,82.10
2018-04-18T11:38:16.992Z,82.10
2018-04-18T11:40:45.419Z,81.20
2018-04-18T11:43:12.987Z,81.30
2018-04-18T11:45:41.311Z,82.50
2018-04-18T11:48:09.680Z,82.00
2018-04-18T11:50:37.241Z,82.00
2018-04-18T11:53:04.804Z,81.30
2018-04-18T11:55:33.141Z,81.30
2018-04-18T11:58:00.704Z,81.20
2018-04-18T12:00:28.296Z,81.20
2018-04-18T12:02:55.856Z,80.90
2018-04-18T12:05:24.199Z,79.60
2018-04-18T12:07:51.764Z,79.50
2018-04-18T12:10:19.321Z,79.00
2018-04-18T12:12:46.896Z,79.80
2018-04-18T12:15:15.225Z,78.30
2018-04-18T12:17:42.787Z,78.30
2018-04-18T12:20:10.345Z,77.80
2018-04-18T12:22:37.901Z,78.10
2018-04-18T12:25:05.484Z,78.90
2018-04-18T12:27:33.052Z,79.30
2018-04-18T12:30:00.657Z,76.70
2018-04-18T12:32:28.980Z,76.50
2018-04-18T12:34:56.540Z,76.30
2018-04-18T12:37:24.112Z,76.40
2018-04-18T12:39:51.676Z,75.70
2018-04-18T12:42:20.000Z,76.10
2018-04-18T12:44:47.557Z,76.00
2018-04-18T12:47:15.104Z,76.00
2018-04-18T12:49:42.690Z,75.60
2018-04-18T12:52:10.255Z,75.60
2018-04-18T12:54:37.813Z,75.40
2018-04-18T12:57:05.377Z,75.50
2018-04-18T12:59:32.931Z,76.00
2018-04-18T13:02:00.528Z,74.80
2018-04-18T13:04:28.085Z,74.80
2018-04-18T13:06:56.405Z,74.70
2018-04-18T13:09:23.956Z,74.60
2018-04-18T13:11:51.516Z,73.60
2018-04-18T13:14:19.098Z,74.00
2018-04-18T13:16:46.652Z,73.00
2018-04-18T13:19:14.226Z,73.80
2018-04-18T13:21:41.788Z,73.60
2018-04-18T13:24:10.124Z,73.70
2018-04-18T13:26:37.698Z,73.60
2018-04-18T13:29:05.252Z,73.60
2018-04-18T13:31:33.569Z,72.20
2018-04-18T13:34:01.884Z,72.00
2018-04-18T13:36:29.432Z,71.90
2018-04-18T13:38:57.081Z,72.00
2018-04-18T13:41:24.648Z,71.20
2018-04-18T13:43:52.248Z,70.10
2018-04-18T13:46:19.816Z,69.40
2018-04-18T13:48:47.425Z,68.70
2018-04-18T13:51:15.000Z,69.40
2018-04-18T13:53:42.553Z,70.10
2018-04-18T13:56:10.112Z,69.80
2018-04-18T13:58:37.672Z,69.80
2018-04-18T14:01:05.226Z,69.30
2018-04-18T14:03:32.804Z,69.30
2018-04-18T14:06:00.359Z,69.90
2018-04-18T14:08:27.916Z,69.50
2018-04-18T14:10:55.464Z,70.10
2018-04-18T14:13:23.026Z,70.10
2018-04-18T14:15:50.637Z,68.30
2018-04-18T14:18:18.975Z,68.60
2018-04-18T14:20:47.353Z,68.80
2018-04-18T14:23:14.877Z,68.80
2018-04-18T14:25:42.437Z,68.20
2018-04-18T14:28:10.044Z,67.40
2018-04-18T14:30:37.600Z,67.90
2018-04-18T14:33:05.156Z,67.70
2018-04-18T14:35:32.704Z,67.50
2018-04-18T14:38:00.267Z,66.80
2018-04-18T14:40:27.842Z,66.50
2018-04-18T14:42:56.167Z,67.70
2018-04-18T14:45:23.753Z,67.70
2018-04-18T14:47:51.310Z,68.00
2018-04-18T14:50:18.865Z,67.70
2018-04-18T14:52:46.448Z,67.60
2018-04-18T14:55:14.008Z,67.00
2018-04-18T14:57:41.564Z,67.30
2018-04-18T15:00:09.114Z,65.90
2018-04-18T15:02:36.672Z,65.40
2018-04-18T15:05:05.037Z,65.10
2018-04-18T15:07:32.588Z,64.90
2018-04-18T15:10:00.154Z,64.40
2018-04-18T15:12:28.886Z,65.60
2018-04-18T15:14:56.544Z,64.90
2018-04-18T15:17:24.146Z,63.50
2018-04-18T15:19:51.708Z,63.60
2018-04-18T15:22:20.073Z,62.70
2018-04-18T15:24:47.718Z,63.10
2018-04-18T15:27:15.268Z,62.30
2018-04-18T15:29:42.856Z,61.70
2018-04-18T15:32:10.417Z,62.30
2018-04-18T15:34:37.972Z,62.30
2018-04-18T15:37:05.524Z,63.00
2018-04-18T15:39:33.073Z,62.60
2018-04-18T15:42:00.651Z,62.90
2018-04-18T15:44:28.205Z,63.40
2018-04-18T15:46:56.520Z,62.40
2018-04-18T15:49:24.086Z,62.40
2018-04-18T15:51:51.653Z,61.90
2018-04-18T15:54:19.237Z,62.40
2018-04-18T15:56:46.796Z,62.50
2018-04-18T15:59:14.356Z,62.50
2018-04-18T16:01:41.908Z,62.10
2018-04-18T16:04:09.461Z,62.10
2018-04-18T16:06:37.157Z,61.90
2018-04-18T16:09:04.712Z,61.90
2018-04-18T16:11:32.268Z,61.70
2018-04-18T16:13:59.863Z,61.70
2018-04-18T16:16:27.445Z,61.80
2018-04-18T16:18:55.024Z,61.50
2018-04-18T16:21:22.585Z,61.50
2018-04-18T16:23:50.137Z,60.60
2018-04-18T16:26:17.695Z,58.90
2018-04-18T16:28:45.252Z,58.40
2018-04-18T16:31:12.854Z,58.50
2018-04-18T16:33:40.410Z,57.90
2018-04-18T16:36:07.964Z,58.10
2018-04-18T16:38:35.537Z,57.70
2018-04-18T16:41:03.097Z,57.90
2018-04-18T16:43:30.661Z,58.10
2018-04-18T16:45:59.008Z,58.40
2018-04-18T16:48:26.564Z,57.80
2018-04-18T16:50:54.130Z,57.90
2018-04-18T16:53:21.755Z,57.40
2018-04-18T16:55:49.315Z,57.10
2018-04-18T16:58:16.872Z,56.90
2018-04-18T17:00:44.429Z,56.80
2018-04-18T17:03:11.988Z,57.20
2018-04-18T17:05:39.546Z,57.00
2018-04-18T17:08:07.095Z,57.00
2018-04-18T17:10:34.669Z,57.10
2018-04-18T17:13:02.231Z,57.70
2018-04-18T17:15:29.797Z,57.60
2018-04-18T17:17:57.348Z,57.90
2018-04-18T17:20:24.929Z,58.00
2018-04-18T17:22:52.516Z,58.00
2018-04-18T17:25:20.065Z,58.00
2018-04-18T17:27:47.632Z,58.20
2018-04-18T17:30:15.948Z,58.50
2018-04-18T17:32:43.532Z,58.50
2018-04-18T17:35:11.154Z,58.20
2018-04-18T17:37:38.705Z,58.60
2018-04-18T17:40:06.265Z,58.80
2018-04-18T17:42:33.820Z,58.60
2018-04-18T17:45:01.398Z,59.00
2018-04-18T17:47:28.961Z,58.90
2018-04-18T17:49:57.062Z,59.10
2018-04-18T17:52:24.678Z,59.40
2018-04-18T17:54:52.256Z,59.70
2018-04-18T17:57:19.812Z,59.90
2018-04-18T17:59:47.451Z,60.40
2018-04-18T18:02:15.119Z,60.80
2018-04-18T18:04:42.677Z,61.00
2018-04-18T18:07:10.253Z,61.00
2018-04-18T18:09:37.854Z,61.40
2018-04-18T18:12:05.379Z,61.80
2018-04-18T18:14:32.908Z,61.90
2018-04-18T18:17:00.452Z,62.20
2018-04-18T18:19:28.050Z,62.20
2018-04-18T18:21:55.591Z,62.20
2018-04-18T18:24:23.133Z,62.40
2018-04-18T18:26:50.680Z,62.40
2018-04-18T18:29:18.235Z,62.60
2018-04-18T18:31:45.784Z,62.60
2018-04-18T18:34:14.098Z,62.80
2018-04-18T18:36:41.650Z,62.70
2018-04-18T18:39:09.204Z,62.80
2018-04-18T18:41:36.727Z,62.90
2018-04-18T18:44:04.289Z,63.90
2018-04-18T18:46:31.827Z,63.70
2018-04-18T18:48:59.356Z,64.20
2018-04-18T18:51:26.888Z,64.40
2018-04-18T18:53:54.430Z,64.50
2018-04-18T18:56:21.980Z,65.00
2018-04-18T18:58:49.516Z,65.10
2018-04-18T19:01:17.036Z,65.10
2018-04-18T19:03:44.562Z,65.30
2018-04-18T19:06:12.088Z,66.20
2018-04-18T19:08:39.651Z,65.70
2018-04-18T19:11:07.191Z,65.30
2018-04-18T19:13:34.716Z,65.90
2018-04-18T19:16:02.418Z,65.90
2018-04-18T19:18:30.736Z,67.10
2018-04-18T19:20:58.298Z,66.40
2018-04-18T19:23:25.891Z,66.70
2018-04-18T19:25:53.439Z,66.60
2018-04-18T19:28:21.125Z,67.00
2018-04-18T19:30:48.731Z,67.70
2018-04-18T19:33:16.292Z,67.40
2018-04-18T19:35:43.845Z,68.20
2018-04-18T19:38:11.394Z,68.10
2018-04-18T19:40:38.930Z,68.20
2018-04-18T19:43:06.531Z,68.70
2018-04-18T19:45:34.123Z,69.70
2018-04-18T19:48:01.673Z,69.10
2018-04-18T19:50:29.246Z,69.10
2018-04-18T19:52:56.779Z,70.50
2018-04-18T19:55:24.298Z,70.40
2018-04-18T19:57:51.852Z,70.80
2018-04-18T20:00:19.399Z,71.00
2018-04-18T20:02:47.695Z,71.00
2018-04-18T20:05:15.284Z,70.90
2018-04-18T20:07:42.821Z,70.70
2018-04-18T20:10:10.376Z,70.90
2018-04-18T20:12:38.118Z,71.00
2018-04-18T20:15:05.658Z,70.70
2018-04-18T20:17:33.950Z,70.60
2018-04-18T20:20:01.523Z,70.50
2018-04-18T20:22:29.086Z,70.70
2018-04-18T20:24:56.630Z,70.90
2018-04-18T20:27:24.166Z,70.60
2018-04-18T20:29:52.461Z,70.30
2018-04-18T20:32:20.003Z,70.30
2018-04-18T20:34:48.316Z,70.20
2018-04-18T20:37:15.854Z,70.20
2018-04-18T20:39:43.391Z,69.80
2018-04-18T20:42:10.926Z,69.80
2018-04-18T20:44:38.444Z,70.10
2018-04-18T20:47:06.007Z,70.00
2018-04-18T20:49:34.446Z,69.90
2018-04-18T20:52:01.968Z,70.10
2018-04-18T20:54:29.500Z,70.00
2018-04-18T20:56:57.025Z,69.90
2018-04-18T20:59:24.584Z,70.30
2018-04-18T21:01:52.124Z,70.40
2018-04-18T21:04:19.645Z,70.60
2018-04-18T21:06:47.164Z,70.80
2018-04-18T21:09:14.688Z,70.70
2018-04-18T21:11:43.010Z,70.60
2018-04-18T21:14:10.546Z,70.60
2018-04-18T21:16:38.080Z,70.90
2018-04-18T21:19:05.615Z,71.00
2018-04-18T21:21:33.162Z,70.80
2018-04-18T21:24:00.700Z,70.80
2018-04-18T21:26:28.220Z,71.30
2018-04-18T21:28:55.745Z,71.40
2018-04-18T21:31:23.290Z,71.90
2018-04-18T21:33:50.823Z,71.90
2018-04-18T21:36:18.379Z,72.00
2018-04-18T21:38:45.926Z,72.00
2018-04-18T21:41:13.452Z,72.00
2018-04-18T21:43:41.740Z,71.60
2018-04-18T21:46:10.035Z,71.30
2018-04-18T21:48:37.580Z,71.20
2018-04-18T21:51:05.118Z,71.40
2018-04-18T21:53:32.640Z,71.60
2018-04-18T21:56:00.180Z,71.60
2018-04-18T21:58:27.894Z,71.30
2018-04-18T22:00:55.453Z,71.30
2018-04-18T22:03:23.744Z,71.30
2018-04-18T22:05:51.282Z,71.30
2018-04-18T22:08:18.804Z,70.50
2018-04-18T22:10:46.341Z,70.80
2018-04-18T22:13:13.902Z,70.50
2018-04-18T22:15:41.416Z,71.10
2018-04-18T22:18:09.717Z,71.10
2018-04-18T22:20:37.248Z,70.90
2018-04-18T22:23:05.552Z,71.20
2018-04-18T22:25:33.111Z,71.10
2018-04-18T22:28:00.653Z,70.90
2018-04-18T22:30:28.192Z,71.20
2018-04-18T22:32:55.730Z,71.30
2018-04-18T22:35:23.274Z,71.10
2018-04-18T22:37:50.826Z,71.40
2018-04-18T22:40:18.369Z,71.30
2018-04-18T22:42:45.898Z,71.20
2018-04-18T22:45:13.421Z,70.60
2018-04-18T22:47:40.993Z,70.10
2018-04-18T22:50:08.540Z,69.10
2018-04-18T22:52:36.085Z,69.20
2018-04-18T22:55:03.623Z,69.60
2018-04-18T22:57:31.148Z,70.10
2018-04-18T22:59:58.683Z,70.20
2018-04-18T23:02:26.998Z,70.40
2018-04-18T23:04:54.524Z,70.40
2018-04-18T23:07:22.812Z,70.40
2018-04-18T23:09:50.338Z,70.40
2018-04-18T23:12:17.856Z,70.20
2018-04-18T23:14:45.419Z,69.60
2018-04-18T23:17:12.954Z,69.50
2018-04-18T23:19:40.490Z,69.50
2018-04-18T23:22:08.791Z,69.40
2018-04-18T23:24:36.313Z,69.40
2018-04-18T23:27:04.643Z,70.90
2018-04-18T23:29:32.179Z,70.10
2018-04-18T23:31:59.708Z,70.00
2018-04-18T23:34:27.238Z,70.60
2018-04-18T23:36:54.782Z,70.30
2018-04-18T23:39:22.323Z,70.20
2018-04-18T23:41:49.852Z,70.80
2018-04-18T23:44:17.378Z,70.80
2018-04-18T23:46:44.892Z,70.80
2018-04-18T23:49:12.430Z,70.50
2018-04-18T23:51:39.970Z,70.60
2018-04-18T23:54:07.515Z,71.00
2018-04-18T23:56:35.046Z,70.90
2018-04-18T23:59:02.908Z,71.20
